Time;durP1;ratioP1;P1;durP2;ratioP2;P2;SDS_P1;SDS_P2;PMS_P1;PMS_P2;Temp;Humidity;BMP_temperature;BMP_pressure;BME280_temperature;BME280_humidity;BME280_pressure;Samples;Min_cycle;Max_cycle;Signal;HPM_P1;HPM_P2
2022/05/17 00:01:33;;;;;;;59.50;3.50;;;;;;;;;;5076918;28;20471;-79
2022/05/17 00:04:01;;;;;;;60.97;4.40;;;;;;;;;;5076154;28;20460;-79
2022/05/17 00:06:30;;;;;;;65.70;4.57;;;;;;;;;;5076567;28;20459;-78
2022/05/17 00:08:58;;;;;;;59.67;3.50;;;;;;;;;;5076291;28;20973;-79
2022/05/17 00:11:25;;;;;;;59.73;3.90;;;;;;;;;;5076542;28;20498;-78
2022/05/17 00:13:52;;;;;;;59.40;3.20;;;;;;;;;;5076333;28;21042;-79
2022/05/17 00:16:19;;;;;;;59.50;3.47;;;;;;;;;;5076887;28;20540;-78
2022/05/17 00:18:46;;;;;;;61.20;3.73;;;;;;;;;;5076395;28;20496;-78
2022/05/17 00:21:14;;;;;;;59.30;3.20;;;;;;;;;;5076390;28;20907;-78
2022/05/17 00:23:42;;;;;;;59.17;2.90;;;;;;;;;;5076712;28;20967;-78
2022/05/17 00:26:10;;;;;;;59.47;3.73;;;;;;;;;;5076748;28;20447;-78
2022/05/17 00:28:38;;;;;;;59.60;3.57;;;;;;;;;;5075223;28;20606;-78
2022/05/17 00:31:06;;;;;;;60.40;3.20;;;;;;;;;;5076292;28;20872;-79
2022/05/17 00:33:33;;;;;;;59.27;3.53;;;;;;;;;;5076484;28;20507;-78
2022/05/17 00:36:00;;;;;;;59.90;3.77;;;;;;;;;;5076571;28;20448;-79
2022/05/17 00:38:28;;;;;;;59.20;3.20;;;;;;;;;;5075462;28;20499;-79
2022/05/17 00:40:56;;;;;;;59.33;3.07;;;;;;;;;;5076326;28;20566;-79
2022/05/17 00:43:28;;;;;;;59.43;3.90;;;;;;;;;;5075922;28;20458;-78
2022/05/17 00:45:55;;;;;;;59.47;3.63;;;;;;;;;;5076262;28;20456;-78
2022/05/17 00:48:23;;;;;;;59.30;3.00;;;;;;;;;;5075259;28;20447;-79
2022/05/17 00:50:51;;;;;;;59.90;3.87;;;;;;;;;;5087976;28;20872;-78
2022/05/17 00:53:20;;;;;;;58.97;3.00;;;;;;;;;;5076075;28;20501;-78
2022/05/17 00:55:50;;;;;;;58.83;2.80;;;;;;;;;;5075413;28;20797;-78
2022/05/17 00:58:21;;;;;;;59.37;3.10;;;;;;;;;;5075677;28;20451;-78
2022/05/17 01:00:49;;;;;;;60.10;3.40;;;;;;;;;;5076397;28;20531;-78
2022/05/17 01:03:19;;;;;;;59.57;3.43;;;;;;;;;;5076466;28;20947;-79
2022/05/17 01:05:47;;;;;;;61.60;3.57;;;;;;;;;;5076106;28;20447;-78
2022/05/17 01:08:17;;;;;;;59.17;3.20;;;;;;;;;;5075665;28;20448;-79
2022/05/17 01:10:44;;;;;;;59.10;2.97;;;;;;;;;;5076295;28;20493;-78
2022/05/17 01:15:57;;;;;;;60.27;3.03;;;;;;;;;;5076216;28;20509;-78
2022/05/17 01:18:25;;;;;;;59.10;2.93;;;;;;;;;;5074877;28;20459;-79
2022/05/17 01:20:52;;;;;;;59.80;3.80;;;;;;;;;;5076080;28;20562;-78
2022/05/17 01:23:20;;;;;;;59.80;3.20;;;;;;;;;;5076416;28;20452;-79
2022/05/17 01:25:48;;;;;;;59.37;3.20;;;;;;;;;;5076838;28;20455;-79
2022/05/17 01:28:17;;;;;;;59.30;3.10;;;;;;;;;;5076850;28;20959;-79
2022/05/17 01:30:44;;;;;;;59.13;2.90;;;;;;;;;;5076545;28;20943;-79
2022/05/17 01:33:14;;;;;;;59.60;3.40;;;;;;;;;;5077469;28;20542;-79
2022/05/17 01:35:41;;;;;;;60.80;3.47;;;;;;;;;;5077807;28;20500;-79
2022/05/17 01:38:08;;;;;;;59.17;3.03;;;;;;;;;;5077862;28;20476;-79
2022/05/17 01:40:37;;;;;;;59.20;3.20;;;;;;;;;;5076070;28;20506;-78
2022/05/17 01:43:04;;;;;;;59.93;3.77;;;;;;;;;;5075697;28;20447;-79
2022/05/17 01:45:32;;;;;;;59.23;3.10;;;;;;;;;;5076604;28;20460;-79
2022/05/17 01:47:59;;;;;;;60.00;3.73;;;;;;;;;;5078058;28;20546;-79
2022/05/17 01:50:26;;;;;;;59.80;4.00;;;;;;;;;;5078718;28;20554;-78
2022/05/17 01:52:54;;;;;;;60.07;3.97;;;;;;;;;;5078737;28;20455;-79
2022/05/17 01:55:21;;;;;;;59.07;2.87;;;;;;;;;;5078609;28;20495;-79
2022/05/17 01:57:49;;;;;;;59.90;3.33;;;;;;;;;;5078465;28;20451;-79
2022/05/17 02:00:18;;;;;;;60.17;3.57;;;;;;;;;;5079083;28;20538;-79
2022/05/17 02:02:45;;;;;;;59.87;3.80;;;;;;;;;;5078432;28;20539;-79
2022/05/17 02:05:12;;;;;;;59.07;3.03;;;;;;;;;;5078318;28;20534;-79
2022/05/17 02:07:40;;;;;;;59.37;3.30;;;;;;;;;;5077836;28;20451;-79
2022/05/17 02:10:07;;;;;;;59.07;3.10;;;;;;;;;;5078352;28;21073;-78
2022/05/17 02:12:35;;;;;;;59.70;3.60;;;;;;;;;;5078234;28;20490;-78
2022/05/17 02:15:04;;;;;;;60.10;3.43;;;;;;;;;;5078425;28;20964;-79
2022/05/17 02:17:31;;;;;;;59.73;3.60;;;;;;;;;;5077791;28;20455;-78
2022/05/17 02:19:58;;;;;;;59.57;3.47;;;;;;;;;;5078391;28;20478;-79
2022/05/17 02:22:25;;;;;;;59.23;3.23;;;;;;;;;;5078351;28;20447;-78
2022/05/17 02:24:52;;;;;;;60.10;3.43;;;;;;;;;;5079156;28;20458;-79
2022/05/17 02:27:20;;;;;;;59.20;2.80;;;;;;;;;;5077946;28;20543;-78
2022/05/17 02:29:47;;;;;;;59.17;2.70;;;;;;;;;;5078358;28;21011;-79
2022/05/17 02:32:16;;;;;;;59.80;3.33;;;;;;;;;;5078700;28;20504;-79
2022/05/17 02:34:43;;;;;;;59.40;3.50;;;;;;;;;;5078733;28;20524;-79
2022/05/17 02:37:10;;;;;;;59.37;2.97;;;;;;;;;;5078013;28;20478;-79
2022/05/17 02:39:38;;;;;;;59.17;3.00;;;;;;;;;;5078821;28;20487;-79
2022/05/17 02:42:07;;;;;;;60.80;5.33;;;;;;;;;;5078520;28;20439;-79
2022/05/17 02:44:34;;;;;;;59.80;3.70;;;;;;;;;;5078736;28;20459;-78
2022/05/17 02:47:01;;;;;;;59.07;3.10;;;;;;;;;;5078158;28;20449;-79
2022/05/17 02:49:29;;;;;;;59.03;3.00;;;;;;;;;;5077711;28;20527;-79
2022/05/17 02:51:56;;;;;;;59.70;3.80;;;;;;;;;;5077478;28;20584;-79
2022/05/17 02:54:24;;;;;;;58.97;2.80;;;;;;;;;;5078037;28;20477;-79
2022/05/17 02:56:51;;;;;;;59.50;3.03;;;;;;;;;;5077586;28;20499;-78
2022/05/17 02:59:19;;;;;;;59.40;3.10;;;;;;;;;;5076970;28;20514;-79
2022/05/17 03:01:47;;;;;;;59.37;3.07;;;;;;;;;;5077796;28;20459;-78
2022/05/17 03:04:15;;;;;;;59.40;3.00;;;;;;;;;;5077202;28;20492;-79
2022/05/17 03:06:44;;;;;;;59.50;3.10;;;;;;;;;;5077622;28;20531;-79
2022/05/17 03:09:13;;;;;;;60.40;4.33;;;;;;;;;;5076606;28;20586;-79
2022/05/17 03:11:42;;;;;;;59.70;3.87;;;;;;;;;;5076784;28;20540;-78
2022/05/17 03:14:09;;;;;;;59.07;3.00;;;;;;;;;;5077554;28;20454;-79
2022/05/17 03:16:36;;;;;;;59.40;3.33;;;;;;;;;;5077117;28;20522;-78
2022/05/17 03:19:04;;;;;;;59.50;3.47;;;;;;;;;;5076790;28;20546;-79
2022/05/17 03:21:31;;;;;;;59.40;2.97;;;;;;;;;;5077162;28;20460;-78
2022/05/17 03:24:00;;;;;;;59.07;3.13;;;;;;;;;;5077164;28;20477;-79
2022/05/17 03:26:28;;;;;;;58.97;2.80;;;;;;;;;;5076697;28;20526;-78
2022/05/17 03:28:56;;;;;;;59.33;3.10;;;;;;;;;;5075675;28;20466;-79
2022/05/17 03:31:23;;;;;;;59.27;2.90;;;;;;;;;;5077017;28;20483;-78
2022/05/17 03:33:50;;;;;;;59.33;2.83;;;;;;;;;;5077119;28;20542;-78
2022/05/17 03:36:18;;;;;;;59.40;3.20;;;;;;;;;;5076430;28;20834;-80
2022/05/17 03:38:45;;;;;;;60.80;3.80;;;;;;;;;;5075565;28;20505;-78
2022/05/17 03:41:14;;;;;;;59.60;3.57;;;;;;;;;;5076430;28;20522;-79
2022/05/17 03:43:41;;;;;;;59.37;3.20;;;;;;;;;;5076235;28;20510;-78
2022/05/17 03:46:09;;;;;;;59.67;3.50;;;;;;;;;;5076636;28;20530;-79
2022/05/17 03:48:36;;;;;;;59.87;3.57;;;;;;;;;;5082885;28;20494;-78
2022/05/17 03:51:03;;;;;;;59.17;2.97;;;;;;;;;;5090389;28;20554;-78
2022/05/17 03:53:30;;;;;;;61.27;4.50;;;;;;;;;;5075227;28;20486;-79
2022/05/17 03:55:58;;;;;;;59.13;3.27;;;;;;;;;;5076529;28;20490;-79
2022/05/17 03:58:27;;;;;;;59.47;3.50;;;;;;;;;;5075597;28;20462;-78
2022/05/17 04:00:54;;;;;;;59.50;3.13;;;;;;;;;;5076068;28;20475;-79
2022/05/17 04:03:21;;;;;;;59.70;3.70;;;;;;;;;;5075393;28;20486;-78
2022/05/17 04:05:48;;;;;;;59.57;3.17;;;;;;;;;;5075921;28;20833;-78
2022/05/17 04:08:15;;;;;;;59.43;3.50;;;;;;;;;;5075347;28;20538;-78
2022/05/17 04:10:42;;;;;;;59.60;3.40;;;;;;;;;;5075564;28;20479;-78
2022/05/17 04:13:10;;;;;;;59.40;3.20;;;;;;;;;;5075402;28;20577;-78
2022/05/17 04:15:38;;;;;;;59.37;3.40;;;;;;;;;;5075947;28;20530;-78
2022/05/17 04:18:05;;;;;;;58.97;2.87;;;;;;;;;;5075252;28;20550;-78
2022/05/17 04:20:33;;;;;;;59.33;3.37;;;;;;;;;;5076129;28;20514;-78
2022/05/17 04:23:00;;;;;;;59.47;3.40;;;;;;;;;;5075700;28;20811;-79
2022/05/17 04:25:28;;;;;;;59.37;3.50;;;;;;;;;;5075649;28;20439;-78
2022/05/17 04:27:56;;;;;;;59.40;3.30;;;;;;;;;;5074717;28;20780;-78
2022/05/17 04:30:23;;;;;;;59.37;3.13;;;;;;;;;;5076203;28;20474;-78
2022/05/17 04:32:52;;;;;;;59.90;3.57;;;;;;;;;;5075778;28;20554;-79
2022/05/17 04:35:19;;;;;;;59.10;3.00;;;;;;;;;;5075988;28;20815;-78
2022/05/17 04:37:46;;;;;;;59.40;3.50;;;;;;;;;;5074641;28;20487;-78
2022/05/17 04:40:14;;;;;;;59.70;3.87;;;;;;;;;;5076201;28;20785;-78
2022/05/17 04:42:43;;;;;;;60.53;4.13;;;;;;;;;;5075704;28;20884;-78
2022/05/17 04:45:12;;;;;;;59.07;2.87;;;;;;;;;;5075801;28;20550;-78
2022/05/17 04:47:40;;;;;;;59.10;3.10;;;;;;;;;;5074388;28;20526;-78
2022/05/17 04:50:09;;;;;;;59.33;3.40;;;;;;;;;;5074798;28;20482;-78
2022/05/17 04:52:36;;;;;;;58.97;3.27;;;;;;;;;;5075304;28;20914;-78
2022/05/17 04:55:03;;;;;;;60.47;3.93;;;;;;;;;;5075624;28;20537;-78
2022/05/17 04:57:30;;;;;;;60.77;4.80;;;;;;;;;;5074178;28;20454;-78
2022/05/17 04:59:59;;;;;;;60.40;3.40;;;;;;;;;;5075591;28;20463;-78
2022/05/17 05:02:26;;;;;;;60.90;4.37;;;;;;;;;;5074996;28;20449;-78
2022/05/17 05:04:53;;;;;;;61.20;5.10;;;;;;;;;;5075095;28;20539;-78
2022/05/17 05:07:22;;;;;;;59.40;3.50;;;;;;;;;;5074395;28;20542;-78
2022/05/17 05:09:49;;;;;;;60.60;4.43;;;;;;;;;;5074598;28;20534;-78
2022/05/17 05:12:16;;;;;;;60.70;5.33;;;;;;;;;;5075504;28;20864;-79
2022/05/17 05:14:45;;;;;;;62.30;4.00;;;;;;;;;;5076017;28;20461;-78
2022/05/17 05:17:12;;;;;;;59.90;3.60;;;;;;;;;;5078123;28;21043;-78
2022/05/17 05:19:39;;;;;;;59.47;3.53;;;;;;;;;;5079286;28;20964;-78
2022/05/17 05:22:06;;;;;;;59.40;3.07;;;;;;;;;;5078962;28;20478;-78
2022/05/17 05:24:35;;;;;;;59.90;3.00;;;;;;;;;;5079012;28;20530;-78
2022/05/17 05:27:02;;;;;;;59.07;2.97;;;;;;;;;;5079059;28;20458;-79
2022/05/17 05:29:29;;;;;;;58.97;2.70;;;;;;;;;;5078769;28;20530;-78
2022/05/17 05:31:56;;;;;;;59.70;3.30;;;;;;;;;;5078930;28;20482;-79
2022/05/17 05:34:24;;;;;;;59.40;3.30;;;;;;;;;;5079485;28;20501;-78
2022/05/17 05:36:51;;;;;;;58.97;3.30;;;;;;;;;;5078748;28;20464;-78
2022/05/17 05:39:19;;;;;;;59.23;3.63;;;;;;;;;;5078790;28;20469;-78
2022/05/17 05:41:47;;;;;;;59.90;3.67;;;;;;;;;;5079449;28;20550;-79
2022/05/17 05:44:14;;;;;;;59.37;3.40;;;;;;;;;;5079544;28;20467;-78
2022/05/17 05:46:41;;;;;;;59.37;3.03;;;;;;;;;;5079581;28;20475;-77
2022/05/17 05:49:09;;;;;;;61.00;4.60;;;;;;;;;;5078865;28;20891;-79
2022/05/17 05:51:36;;;;;;;59.07;3.40;;;;;;;;;;5079362;28;20824;-79
2022/05/17 05:54:04;;;;;;;59.27;3.40;;;;;;;;;;5078966;28;20439;-79
2022/05/17 05:56:31;;;;;;;63.17;4.87;;;;;;;;;;5079593;28;20538;-79
2022/05/17 05:58:59;;;;;;;59.40;3.20;;;;;;;;;;5078541;28;20464;-80
2022/05/17 06:01:27;;;;;;;59.33;3.70;;;;;;;;;;5079166;28;20554;-79
2022/05/17 06:03:54;;;;;;;65.70;5.00;;;;;;;;;;5079338;28;20443;-79
2022/05/17 06:06:21;;;;;;;59.10;3.20;;;;;;;;;;5079347;28;20455;-79
2022/05/17 06:08:48;;;;;;;59.70;3.60;;;;;;;;;;5079097;28;20488;-79
2022/05/17 06:11:15;;;;;;;59.20;3.30;;;;;;;;;;5080529;28;20915;-79
2022/05/17 06:13:43;;;;;;;59.67;3.73;;;;;;;;;;5079669;28;20553;-78
2022/05/17 06:16:11;;;;;;;59.63;4.00;;;;;;;;;;5076944;28;20547;-79
2022/05/17 06:18:38;;;;;;;65.00;4.27;;;;;;;;;;5085840;28;20513;-79
2022/05/17 06:21:06;;;;;;;59.60;3.93;;;;;;;;;;5080377;28;20465;-79
2022/05/17 06:23:35;;;;;;;59.20;3.40;;;;;;;;;;5077438;28;21010;-78
2022/05/17 06:26:02;;;;;;;63.27;4.60;;;;;;;;;;5077520;28;20536;-77
2022/05/17 06:28:29;;;;;;;63.90;4.00;;;;;;;;;;5076665;28;20533;-79
2022/05/17 06:30:56;;;;;;;59.60;3.57;;;;;;;;;;5077320;28;20501;-77
2022/05/17 06:33:26;;;;;;;59.30;3.60;;;;;;;;;;5074521;28;20485;-78
2022/05/17 06:35:54;;;;;;;60.47;5.07;;;;;;;;;;5075051;28;20456;-77
2022/05/17 06:38:21;;;;;;;60.20;4.50;;;;;;;;;;5074764;28;20876;-77
2022/05/17 06:40:48;;;;;;;60.80;4.23;;;;;;;;;;5074685;28;20492;-77
2022/05/17 06:43:15;;;;;;;60.43;4.23;;;;;;;;;;5075223;28;20454;-78
2022/05/17 06:45:42;;;;;;;59.37;4.00;;;;;;;;;;5075365;28;20500;-78
2022/05/17 06:48:10;;;;;;;60.97;4.63;;;;;;;;;;5074690;28;20454;-78
2022/05/17 06:50:38;;;;;;;60.63;4.20;;;;;;;;;;5075637;28;20553;-78
2022/05/17 06:53:07;;;;;;;59.40;3.67;;;;;;;;;;5074891;28;20577;-78
2022/05/17 06:55:34;;;;;;;59.50;4.13;;;;;;;;;;5075716;28;20830;-78
2022/05/17 06:58:02;;;;;;;59.97;4.50;;;;;;;;;;5075084;28;20512;-78
2022/05/17 07:00:31;;;;;;;59.27;3.60;;;;;;;;;;5075487;28;20473;-78
2022/05/17 07:02:59;;;;;;;60.63;3.60;;;;;;;;;;5075113;28;20450;-77
2022/05/17 07:05:26;;;;;;;60.40;4.03;;;;;;;;;;5075459;28;20512;-78
2022/05/17 07:07:55;;;;;;;60.43;4.40;;;;;;;;;;5073244;28;20497;-78
2022/05/17 07:13:10;;;;;;;59.70;4.00;;;;;;;;;;5073325;28;20528;-76
2022/05/17 07:15:37;;;;;;;68.17;4.20;;;;;;;;;;5076385;28;20823;-79
2022/05/17 07:18:05;;;;;;;60.63;4.10;;;;;;;;;;5078581;28;20963;-78
2022/05/17 07:20:32;;;;;;;63.00;5.00;;;;;;;;;;5079091;28;20479;-79
2022/05/17 07:23:00;;;;;;;59.37;4.40;;;;;;;;;;5078571;28;20455;-79
2022/05/17 07:25:28;;;;;;;62.17;5.73;;;;;;;;;;5078596;28;20461;-79
2022/05/17 07:27:55;;;;;;;62.80;4.10;;;;;;;;;;5077587;28;20463;-79
2022/05/17 07:30:22;;;;;;;61.73;4.80;;;;;;;;;;5078676;28;20550;-79
2022/05/17 07:32:49;;;;;;;60.40;4.03;;;;;;;;;;5078868;28;20599;-79
2022/05/17 07:35:16;;;;;;;59.67;3.70;;;;;;;;;;5078557;28;21013;-79
2022/05/17 07:37:43;;;;;;;62.10;4.87;;;;;;;;;;5078702;28;20542;-79
2022/05/17 07:40:13;;;;;;;60.57;4.10;;;;;;;;;;5082162;28;20903;-80
2022/05/17 07:42:40;;;;;;;61.57;4.97;;;;;;;;;;5081894;28;20444;-80
2022/05/17 07:45:08;;;;;;;60.70;4.67;;;;;;;;;;5082775;28;20454;-80
2022/05/17 07:47:36;;;;;;;60.30;4.93;;;;;;;;;;5082055;28;20485;-80
2022/05/17 07:50:03;;;;;;;58.83;3.43;;;;;;;;;;5081013;28;20524;-78
2022/05/17 07:52:31;;;;;;;59.27;3.67;;;;;;;;;;5078459;28;20535;-80
2022/05/17 07:54:59;;;;;;;59.50;3.67;;;;;;;;;;5083493;28;20548;-80
2022/05/17 07:57:28;;;;;;;59.07;3.47;;;;;;;;;;5082145;28;20454;-80
2022/05/17 07:59:55;;;;;;;60.80;3.70;;;;;;;;;;5082357;28;20448;-80
2022/05/17 08:02:22;;;;;;;59.83;3.97;;;;;;;;;;5080884;28;20869;-80
2022/05/17 08:04:50;;;;;;;60.30;3.50;;;;;;;;;;5081885;28;20452;-78
2022/05/17 08:07:17;;;;;;;62.27;3.40;;;;;;;;;;5081054;28;20456;-78
2022/05/17 08:09:44;;;;;;;63.47;3.83;;;;;;;;;;5079759;28;20540;-80
2022/05/17 08:12:11;;;;;;;61.17;3.97;;;;;;;;;;5080672;28;20536;-79
2022/05/17 08:14:40;;;;;;;65.53;4.00;;;;;;;;;;5079493;28;20514;-79
2022/05/17 08:17:08;;;;;;;61.87;3.87;;;;;;;;;;5075992;28;20432;-79
2022/05/17 08:19:35;;;;;;;59.87;3.43;;;;;;;;;;5076124;28;20494;-79
2022/05/17 08:22:03;;;;;;;59.00;3.07;;;;;;;;;;5076908;28;20466;-81
2022/05/17 08:27:31;;;;;;;60.77;3.80;;;;;;;;;;5076024;28;20453;-74
2022/05/17 08:27:36;;;;;;;59.13;3.50;;;;;;;;;;5071167;28;20449;-77
2022/05/17 08:30:08;;;;;;;59.90;4.20;;;;;;;;;;5071943;28;20462;-71
2022/05/17 08:35:19;;;;;;;59.97;3.50;;;;;;;;;;5071819;28;20888;-73
2022/05/17 08:37:46;;;;;;;58.67;2.97;;;;;;;;;;5071255;28;20465;-76
2022/05/17 08:40:18;;;;;;;58.80;2.87;;;;;;;;;;5072249;28;20471;-77
2022/05/17 08:42:48;;;;;;;59.27;3.43;;;;;;;;;;5073068;28;20463;-72
2022/05/17 08:45:19;;;;;;;59.13;2.93;;;;;;;;;;5072001;28;20935;-77
2022/05/17 08:47:49;;;;;;;59.27;3.80;;;;;;;;;;5071283;28;20458;-70
2022/05/17 08:50:19;;;;;;;64.80;3.50;;;;;;;;;;5071375;28;20525;-76
2022/05/17 08:52:46;;;;;;;60.70;4.00;;;;;;;;;;5071583;28;20526;-73
2022/05/17 08:55:17;;;;;;;59.27;3.30;;;;;;;;;;5071663;28;20538;-76
2022/05/17 08:57:46;;;;;;;59.70;3.77;;;;;;;;;;5071298;28;20459;-75
2022/05/17 09:00:17;;;;;;;60.60;3.80;;;;;;;;;;5071403;28;20463;-77
2022/05/17 09:02:46;;;;;;;58.80;2.80;;;;;;;;;;5072380;28;20487;-75
2022/05/17 09:05:17;;;;;;;59.80;3.60;;;;;;;;;;5071384;28;20455;-69
2022/05/17 09:07:50;;;;;;;59.77;3.40;;;;;;;;;;5072657;28;20497;-73
2022/05/17 09:10:24;;;;;;;58.63;2.73;;;;;;;;;;5072560;28;20906;-77
2022/05/17 09:12:53;;;;;;;59.83;3.80;;;;;;;;;;5071345;28;20966;-73
2022/05/17 09:15:20;;;;;;;59.47;3.10;;;;;;;;;;5071316;28;20970;-73
2022/05/17 09:17:48;;;;;;;58.97;3.23;;;;;;;;;;5070936;28;20547;-73
2022/05/17 09:20:18;;;;;;;59.37;3.30;;;;;;;;;;5071398;28;20477;-75
2022/05/17 09:22:45;;;;;;;59.27;3.20;;;;;;;;;;5071230;28;20456;-75
2022/05/17 09:25:17;;;;;;;59.73;2.90;;;;;;;;;;5071717;28;20454;-76
2022/05/17 09:27:47;;;;;;;60.13;3.73;;;;;;;;;;5070997;28;20456;-76
2022/05/17 09:30:28;;;;;;;59.20;3.10;;;;;;;;;;5071807;28;20558;-78
2022/05/17 09:33:01;;;;;;;60.07;3.40;;;;;;;;;;5072639;28;20482;-79
2022/05/17 09:35:29;;;;;;;58.57;2.67;;;;;;;;;;5074853;28;20637;-77
2022/05/17 09:37:59;;;;;;;59.20;2.97;;;;;;;;;;5070716;28;20501;-76
2022/05/17 09:40:26;;;;;;;58.97;2.80;;;;;;;;;;5071372;28;20478;-76
2022/05/17 09:42:55;;;;;;;58.50;2.40;;;;;;;;;;5071475;28;20538;-77
2022/05/17 09:45:23;;;;;;;60.47;3.30;;;;;;;;;;5071115;28;20452;-77
2022/05/17 09:47:56;;;;;;;59.30;2.80;;;;;;;;;;5070550;28;20454;-78
2022/05/17 09:53:14;;;;;;;58.90;3.07;;;;;;;;;;5071031;28;20479;-77
2022/05/17 09:55:43;;;;;;;58.70;2.70;;;;;;;;;;5071212;28;20505;-78
2022/05/17 09:58:12;;;;;;;58.70;3.20;;;;;;;;;;5070559;28;20959;-77
2022/05/17 10:00:49;;;;;;;58.57;2.80;;;;;;;;;;5070945;28;20464;-75
2022/05/17 10:03:31;;;;;;;58.47;2.70;;;;;;;;;;5073758;28;20984;-74
2022/05/17 10:06:01;;;;;;;59.27;3.20;;;;;;;;;;5078161;28;20466;-78
2022/05/17 10:08:47;;;;;;;58.37;2.50;;;;;;;;;;5076918;28;20459;-78
2022/05/17 10:11:19;;;;;;;58.30;2.40;;;;;;;;;;5075899;28;20463;-73
2022/05/17 10:13:52;;;;;;;58.40;2.30;;;;;;;;;;5076907;28;20490;-79
2022/05/17 10:16:24;;;;;;;59.50;2.67;;;;;;;;;;5077970;28;20554;-75
2022/05/17 10:18:55;;;;;;;58.80;2.83;;;;;;;;;;5073846;28;20538;-75
2022/05/17 10:21:27;;;;;;;58.47;2.70;;;;;;;;;;5075113;28;21069;-76
2022/05/17 10:23:57;;;;;;;59.27;3.03;;;;;;;;;;5074383;28;20812;-76
2022/05/17 10:26:28;;;;;;;59.60;2.67;;;;;;;;;;5074394;28;20542;-75
2022/05/17 10:28:59;;;;;;;57.77;2.20;;;;;;;;;;5073806;28;20447;-79
2022/05/17 10:31:31;;;;;;;60.63;2.00;;;;;;;;;;5080948;28;20563;-76
2022/05/17 10:34:06;;;;;;;57.67;2.20;;;;;;;;;;5075571;28;20540;-80
2022/05/17 10:36:38;;;;;;;58.60;2.70;;;;;;;;;;5078277;28;20522;-81
2022/05/17 10:39:07;;;;;;;57.40;1.97;;;;;;;;;;5077472;28;20463;-81
2022/05/17 10:41:34;;;;;;;57.67;1.80;;;;;;;;;;5077511;28;20546;-80
2022/05/17 10:44:02;;;;;;;57.87;2.33;;;;;;;;;;5076254;28;20460;-80
2022/05/17 10:46:31;;;;;;;57.47;2.23;;;;;;;;;;5075585;28;20527;-80
2022/05/17 10:49:06;;;;;;;57.60;1.90;;;;;;;;;;5074984;28;20546;-79
2022/05/17 10:51:40;;;;;;;57.30;2.00;;;;;;;;;;5076026;28;20473;-81
2022/05/17 10:54:10;;;;;;;57.60;2.13;;;;;;;;;;5075213;28;20476;-79
2022/05/17 10:56:42;;;;;;;57.00;1.83;;;;;;;;;;5076103;28;20526;-79
2022/05/17 10:59:12;;;;;;;59.30;2.30;;;;;;;;;;5076470;28;20835;-80
2022/05/17 11:01:43;;;;;;;57.60;2.10;;;;;;;;;;5077401;28;20510;-80
2022/05/17 11:04:20;;;;;;;57.20;2.10;;;;;;;;;;5077432;28;20459;-79
2022/05/17 11:06:54;;;;;;;57.27;2.20;;;;;;;;;;5076522;28;20491;-80
2022/05/17 11:09:24;;;;;;;57.10;2.17;;;;;;;;;;5075964;28;20487;-79
2022/05/17 11:11:56;;;;;;;57.27;2.03;;;;;;;;;;5076338;28;20448;-80
2022/05/17 11:14:26;;;;;;;58.60;2.30;;;;;;;;;;5077126;28;20594;-80
2022/05/17 11:16:58;;;;;;;57.30;2.07;;;;;;;;;;5077302;28;20463;-80
2022/05/17 11:19:30;;;;;;;56.97;1.70;;;;;;;;;;5076895;28;20522;-79
2022/05/17 11:22:01;;;;;;;59.17;2.30;;;;;;;;;;5076511;28;20471;-80
2022/05/17 11:24:37;;;;;;;57.60;2.20;;;;;;;;;;5077588;28;20459;-82
2022/05/17 11:27:13;;;;;;;57.53;2.33;;;;;;;;;;5077242;28;20819;-84
2022/05/17 11:30:01;;;;;;;56.90;1.60;;;;;;;;;;5078046;28;20447;-79
2022/05/17 11:32:30;;;;;;;57.43;2.30;;;;;;;;;;5077462;28;20531;-79
2022/05/17 11:34:58;;;;;;;60.30;2.60;;;;;;;;;;5078290;28;20916;-80
2022/05/17 11:37:52;;;;;;;57.20;2.13;;;;;;;;;;5076693;28;20459;-80
2022/05/17 11:40:38;;;;;;;57.10;2.30;;;;;;;;;;5040366;28;20507;-80
2022/05/17 11:45:55;;;;;;;57.70;2.57;;;;;;;;;;5076150;28;20431;-83
2022/05/17 11:48:24;;;;;;;57.50;2.33;;;;;;;;;;5077478;28;20789;-82
2022/05/17 11:50:57;;;;;;;57.80;2.70;;;;;;;;;;5076935;28;20579;-82
2022/05/17 11:53:41;;;;;;;57.07;2.20;;;;;;;;;;5077003;28;20425;-80
2022/05/17 11:56:12;;;;;;;57.17;2.00;;;;;;;;;;5077656;28;20459;-80
2022/05/17 11:58:42;;;;;;;57.30;2.10;;;;;;;;;;5077096;28;20912;-80
2022/05/17 12:01:24;;;;;;;57.40;2.40;;;;;;;;;;5073051;28;20474;-80
2022/05/17 12:03:53;;;;;;;56.87;1.97;;;;;;;;;;5076117;28;20507;-81
2022/05/17 12:06:40;;;;;;;57.20;1.83;;;;;;;;;;5077979;28;20451;-80
2022/05/17 12:09:12;;;;;;;56.83;1.90;;;;;;;;;;5076114;28;21012;-81
2022/05/17 12:11:49;;;;;;;57.70;2.53;;;;;;;;;;5076157;28;20501;-80
2022/05/17 12:14:21;;;;;;;57.47;2.70;;;;;;;;;;5078999;28;20455;-81
2022/05/17 12:16:50;;;;;;;58.47;2.57;;;;;;;;;;5077923;28;20999;-81
2022/05/17 12:19:20;;;;;;;57.17;2.27;;;;;;;;;;5078065;28;20463;-80
2022/05/17 12:21:51;;;;;;;57.40;2.60;;;;;;;;;;5077171;28;20882;-80
2022/05/17 12:24:27;;;;;;;56.63;2.03;;;;;;;;;;5076276;28;20514;-80
2022/05/17 12:27:02;;;;;;;57.77;2.63;;;;;;;;;;5077622;28;20538;-82
2022/05/17 12:32:20;;;;;;;56.73;2.33;;;;;;;;;;5076942;28;20813;-82
2022/05/17 12:34:53;;;;;;;57.97;2.70;;;;;;;;;;5075904;28;20487;-80
2022/05/17 12:37:25;;;;;;;57.57;2.50;;;;;;;;;;5078053;28;20452;-81
2022/05/17 12:45:27;;;;;;;57.07;2.30;;;;;;;;;;5071281;28;20478;-75
2022/05/17 12:47:55;;;;;;;57.40;2.63;;;;;;;;;;5070835;28;20545;-73
2022/05/17 12:50:24;;;;;;;64.90;2.50;;;;;;;;;;5071454;28;20550;-75
2022/05/17 12:52:54;;;;;;;57.80;2.53;;;;;;;;;;5071432;28;20450;-74
2022/05/17 12:55:22;;;;;;;56.87;1.93;;;;;;;;;;5071338;28;20448;-75
2022/05/17 12:57:50;;;;;;;57.10;2.30;;;;;;;;;;5070626;28;20859;-75
2022/05/17 13:00:18;;;;;;;56.87;2.30;;;;;;;;;;5072497;28;20477;-78
2022/05/17 13:02:48;;;;;;;59.57;2.47;;;;;;;;;;5071934;28;20542;-72
2022/05/17 13:05:25;;;;;;;56.87;2.30;;;;;;;;;;5071488;28;20475;-73
2022/05/17 13:08:00;;;;;;;57.37;2.30;;;;;;;;;;5071275;28;20821;-77
2022/05/17 13:10:27;;;;;;;58.07;2.10;;;;;;;;;;5071676;28;20503;-72
2022/05/17 13:12:54;;;;;;;57.50;2.53;;;;;;;;;;5071446;28;20530;-77
2022/05/17 13:15:22;;;;;;;57.60;2.53;;;;;;;;;;5071735;28;20684;-78
2022/05/17 13:17:53;;;;;;;57.17;2.00;;;;;;;;;;5070769;28;20542;-78
2022/05/17 13:20:22;;;;;;;57.23;1.90;;;;;;;;;;5071440;28;20517;-77
2022/05/17 13:22:51;;;;;;;57.30;2.27;;;;;;;;;;5071154;28;20447;-77
2022/05/17 13:25:20;;;;;;;57.03;1.87;;;;;;;;;;5071408;28;20487;-77
2022/05/17 13:27:48;;;;;;;59.20;2.10;;;;;;;;;;5071068;28;20482;-77
2022/05/17 13:30:24;;;;;;;57.67;2.33;;;;;;;;;;5071476;28;20466;-77
2022/05/17 13:32:54;;;;;;;57.27;1.93;;;;;;;;;;5080218;28;20872;-77
2022/05/17 13:35:22;;;;;;;57.50;2.23;;;;;;;;;;5072149;28;20454;-77
2022/05/17 13:38:00;;;;;;;57.50;1.90;;;;;;;;;;5074370;28;20971;-77
2022/05/17 13:40:38;;;;;;;57.27;2.27;;;;;;;;;;5075086;28;20563;-77
2022/05/17 13:43:19;;;;;;;58.37;2.37;;;;;;;;;;5075084;28;20791;-77
2022/05/17 13:45:58;;;;;;;57.40;2.53;;;;;;;;;;5074948;28;20852;-77
2022/05/17 13:48:26;;;;;;;57.20;2.00;;;;;;;;;;5074895;28;20487;-77
2022/05/17 13:50:54;;;;;;;57.33;2.10;;;;;;;;;;5074940;28;20473;-77
2022/05/17 13:53:21;;;;;;;57.40;2.23;;;;;;;;;;5075320;28;20872;-77
2022/05/17 13:55:49;;;;;;;58.10;2.20;;;;;;;;;;5074918;28;20902;-78
2022/05/17 13:58:16;;;;;;;58.30;2.70;;;;;;;;;;5074002;28;21012;-78
2022/05/17 14:00:57;;;;;;;57.63;2.37;;;;;;;;;;5074648;28;20475;-78
2022/05/17 14:03:25;;;;;;;58.10;2.63;;;;;;;;;;5074800;28;20547;-77
2022/05/17 14:05:58;;;;;;;57.70;2.20;;;;;;;;;;5074626;28;20519;-77
2022/05/17 14:14:00;;;;;;;57.50;1.90;;;;;;;;;;5074727;28;20415;-76
2022/05/17 14:16:30;;;;;;;57.37;2.07;;;;;;;;;;5074438;28;20443;-77
2022/05/17 14:18:58;;;;;;;64.47;2.37;;;;;;;;;;5073627;28;20479;-77
2022/05/17 14:21:28;;;;;;;57.47;1.70;;;;;;;;;;5074362;28;20581;-77
2022/05/17 14:23:55;;;;;;;57.67;2.00;;;;;;;;;;5074024;28;20462;-77
2022/05/17 14:26:25;;;;;;;57.83;1.97;;;;;;;;;;5074312;28;20483;-77
2022/05/17 14:28:52;;;;;;;57.63;1.90;;;;;;;;;;5073655;28;20475;-76
2022/05/17 14:31:20;;;;;;;58.50;2.73;;;;;;;;;;5074085;28;20463;-77
2022/05/17 14:33:47;;;;;;;58.00;2.20;;;;;;;;;;5073895;28;20460;-77
2022/05/17 14:36:17;;;;;;;58.27;2.20;;;;;;;;;;5074097;28;20538;-77
2022/05/17 14:38:46;;;;;;;57.97;1.90;;;;;;;;;;5073474;28;20898;-77
2022/05/17 14:41:13;;;;;;;58.03;1.90;;;;;;;;;;5073942;28;20982;-77
2022/05/17 14:43:41;;;;;;;60.10;2.37;;;;;;;;;;5074069;28;20474;-77
2022/05/17 14:46:08;;;;;;;58.10;2.20;;;;;;;;;;5073669;28;20484;-77
2022/05/17 14:48:35;;;;;;;57.83;2.20;;;;;;;;;;5072911;28;20530;-77
2022/05/17 14:51:04;;;;;;;58.13;2.43;;;;;;;;;;5073807;28;20467;-76
2022/05/17 14:53:31;;;;;;;57.77;2.10;;;;;;;;;;5073630;28;20432;-77
2022/05/17 14:56:00;;;;;;;57.80;2.00;;;;;;;;;;5073732;28;20534;-77
2022/05/17 14:58:27;;;;;;;57.87;2.30;;;;;;;;;;5073384;28;20447;-77
2022/05/17 15:00:54;;;;;;;59.67;2.40;;;;;;;;;;5074651;28;20473;-77
2022/05/17 15:03:23;;;;;;;58.07;2.40;;;;;;;;;;5082317;28;20805;-77
2022/05/17 15:05:51;;;;;;;58.50;2.50;;;;;;;;;;5073696;28;20484;-77
2022/05/17 15:08:18;;;;;;;57.70;1.90;;;;;;;;;;5073095;28;20530;-77
2022/05/17 15:10:46;;;;;;;57.50;1.90;;;;;;;;;;5073231;28;20478;-77